Profiler II — CZ2496 — position and weather

sailwx.info

Track history (hours):
 
Tides and Currents Weather Stations Pressure Air Temp Water Temp Dewpoint Dewpoint Depression Visibility Wind Speed Wind Dir Waves Ship Positions

Profiler II

Last reported at 2016-Jun-23 21:33 UTC. Time now 2016-Jun-25 08:57 UTC.
Position N 49°07' W 123°12'.

Type: Other ship. MMSI: 316002054.

Date/timePositionNaut miles runAvg speedWind from/ knotsBaromVisibWave heightAir tempDewpointWater temp
2016-Jun-23 21:33N 49°07' W 123°12'0 0.3
2016-Jun-23 20:33N 49°07' W 123°11'0 0.2
2016-Jun-23 19:33N 49°07' W 123°11'1 1.1
2016-Jun-23 18:33N 49°08' W 123°13'0 0.1
2016-Jun-23 17:33N 49°08' W 123°13'1 0.7
2016-Jun-23 16:33N 49°07' W 123°12'0 0.0
2016-Jun-22 21:33N 49°07' W 123°11'3 3.0
2016-Jun-22 20:33N 49°07' W 123°16'0 0.0
2016-Jun-22 19:34N 49°07' W 123°16'0 0.2
2016-Jun-22 18:33N 49°07' W 123°16'0 0.0
2016-Jun-22 17:33N 49°07' W 123°16'1 0.6
2016-Jun-22 16:33N 49°07' W 123°16'6 0.3
2016-Jun-21 21:34N 49°07' W 123°07'9 9.3
2016-Jun-21 20:33N 49°12' W 122°55'0 0.1
2016-Jun-21 19:33N 49°11' W 122°55'0 0.1
2016-Jun-21 18:33N 49°11' W 122°55'0 0.4
2016-Jun-21 17:33N 49°11' W 122°55'5 4.7
2016-Jun-21 16:33N 49°09' W 123°01'  
2016-Jun-16 22:04N 49°07' W 123°11'4 7.5
2016-Jun-16 21:34N 49°07' W 123°17'0 0.3
2016-Jun-16 20:33N 49°07' W 123°16'0 0.5
2016-Jun-16 19:34N 49°07' W 123°16'1 1.1
2016-Jun-16 18:34N 49°07' W 123°17'0 0.3
2016-Jun-16 17:34N 49°07' W 123°17'4 3.9
2016-Jun-16 16:33N 49°07' W 123°11'0 0.0
2016-Jun-16 15:33N 49°07' W 123°11'0 0.0
2016-Jun-14 20:33N 49°07' W 123°12'0 0.1
2016-Jun-14 19:33N 49°07' W 123°12'0 0.1
2016-Jun-14 18:33N 49°07' W 123°12'1 1.0
2016-Jun-14 17:34N 49°08' W 123°13'0 0.3
2016-Jun-14 16:33N 49°08' W 123°13'10 9.8
2016-Jun-14 15:33N 49°09' W 122°58'  
Track history (hours):
 
Tides and Currents Weather Stations Pressure Air Temp Water Temp Dewpoint Dewpoint Depression Visibility Wind Speed Wind Dir Waves Ship Positions

Profiler II

Last reported at 2016-Jun-23 21:33 UTC. Time now 2016-Jun-25 08:57 UTC.
Position N 49°07' W 123°12'.

Type: Other ship. MMSI: 316002054.

Date/timePositionNaut miles runAvg speedWind from/ knotsBaromVisibWave heightAir tempDewpointWater temp
2016-Jun-23 21:33N 49°07' W 123°12'0 0.3
2016-Jun-23 20:33N 49°07' W 123°11'0 0.2
2016-Jun-23 19:33N 49°07' W 123°11'1 1.1
2016-Jun-23 18:33N 49°08' W 123°13'0 0.1
2016-Jun-23 17:33N 49°08' W 123°13'1 0.7
2016-Jun-23 16:33N 49°07' W 123°12'0 0.0
2016-Jun-22 21:33N 49°07' W 123°11'3 3.0
2016-Jun-22 20:33N 49°07' W 123°16'0 0.0
2016-Jun-22 19:34N 49°07' W 123°16'0 0.2
2016-Jun-22 18:33N 49°07' W 123°16'0 0.0
2016-Jun-22 17:33N 49°07' W 123°16'1 0.6
2016-Jun-22 16:33N 49°07' W 123°16'6 0.3
2016-Jun-21 21:34N 49°07' W 123°07'9 9.3
2016-Jun-21 20:33N 49°12' W 122°55'0 0.1
2016-Jun-21 19:33N 49°11' W 122°55'0 0.1
2016-Jun-21 18:33N 49°11' W 122°55'0 0.4
2016-Jun-21 17:33N 49°11' W 122°55'5 4.7
2016-Jun-21 16:33N 49°09' W 123°01'  
2016-Jun-16 22:04N 49°07' W 123°11'4 7.5
2016-Jun-16 21:34N 49°07' W 123°17'0 0.3
2016-Jun-16 20:33N 49°07' W 123°16'0 0.5
2016-Jun-16 19:34N 49°07' W 123°16'1 1.1
2016-Jun-16 18:34N 49°07' W 123°17'0 0.3
2016-Jun-16 17:34N 49°07' W 123°17'4 3.9
2016-Jun-16 16:33N 49°07' W 123°11'0 0.0
2016-Jun-16 15:33N 49°07' W 123°11'0 0.0
2016-Jun-14 20:33N 49°07' W 123°12'0 0.1
2016-Jun-14 19:33N 49°07' W 123°12'0 0.1
2016-Jun-14 18:33N 49°07' W 123°12'1 1.0
2016-Jun-14 17:34N 49°08' W 123°13'0 0.3
2016-Jun-14 16:33N 49°08' W 123°13'10 9.8
2016-Jun-14 15:33N 49°09' W 122°58'  

Dump ship's entire track history